Alamo, North Dakota
Current Conditions -  °F | °C
As of 1:35 AM on Thursday 23 Oct 2014 (Local Time) from KD50 Reporting Station
Unknown Precip Unknown Precip  
Wind Chill: 35°   Ceiling: Unl
Heat Index: 41°   Visibility: 10mi
Dew Point: 37°   Wind: 10mph
Humidity: 87%   Direction: 210°SSW
Pressure: 29.83"   Gusts: NA
Location:  48.58°N, 103.47°W
Report Text: KD50 230635Z AUTO 21009KT 10SM UP CLR 05/03 A2983 RMK AO2
Loading
Personal Weather Stations






























Interactive Weather Map New forecast layout! Learn more

10-Day Weather Forecast

Advertisements
Track Severe Weather on mobile